createdAt,value
2018-01-29T00:00:16.214Z,7.70
2018-01-29T00:02:43.656Z,7.60
2018-01-29T00:05:11.859Z,7.70
2018-01-29T00:07:39.299Z,7.60
2018-01-29T00:10:07.511Z,7.70
2018-01-29T00:12:34.943Z,7.60
2018-01-29T00:15:02.453Z,7.70
2018-01-29T00:17:29.883Z,7.70
2018-01-29T00:19:57.337Z,7.70
2018-01-29T00:22:24.794Z,7.70
2018-01-29T00:24:52.215Z,7.70
2018-01-29T00:27:19.656Z,7.70
2018-01-29T00:29:47.079Z,7.70
2018-01-29T00:32:14.536Z,7.70
2018-01-29T00:34:41.978Z,7.80
2018-01-29T00:37:09.420Z,7.80
2018-01-29T00:39:36.855Z,7.80
2018-01-29T00:42:04.394Z,7.80
2018-01-29T00:44:31.826Z,7.90
2018-01-29T00:46:59.266Z,8.00
2018-01-29T00:49:26.714Z,8.00
2018-01-29T00:51:54.153Z,8.00
2018-01-29T00:54:21.575Z,7.90
2018-01-29T00:56:49.017Z,7.90
2018-01-29T00:59:16.450Z,7.80
2018-01-29T01:01:43.897Z,7.80
2018-01-29T01:04:11.511Z,7.80
2018-01-29T01:06:38.940Z,7.80
2018-01-29T01:09:06.386Z,7.80
2018-01-29T01:11:33.819Z,7.80
2018-01-29T01:14:01.263Z,7.90
2018-01-29T01:16:28.715Z,7.90
2018-01-29T01:18:56.906Z,8.00
2018-01-29T01:21:24.334Z,8.00
2018-01-29T01:23:51.763Z,8.10
2018-01-29T01:26:19.211Z,8.10
2018-01-29T01:28:46.649Z,8.20
2018-01-29T01:31:14.087Z,8.20
2018-01-29T01:33:41.542Z,8.20
2018-01-29T01:36:08.985Z,8.10
2018-01-29T01:38:37.181Z,8.30
2018-01-29T01:41:04.595Z,8.20
2018-01-29T01:43:32.061Z,8.40
2018-01-29T01:45:59.493Z,8.40
2018-01-29T01:48:26.983Z,8.50
2018-01-29T01:50:54.415Z,8.50
2018-01-29T01:53:21.837Z,8.50
2018-01-29T01:55:49.267Z,8.40
2018-01-29T01:58:16.708Z,8.50
2018-01-29T02:00:44.138Z,8.50
2018-01-29T02:03:11.558Z,8.50
2018-01-29T02:05:39.021Z,8.50
2018-01-29T02:08:06.460Z,8.40
2018-01-29T02:10:33.909Z,8.50
2018-01-29T02:13:01.343Z,8.50
2018-01-29T02:15:29.536Z,8.50
2018-01-29T02:17:56.980Z,8.40
2018-01-29T02:20:25.191Z,8.50
2018-01-29T02:22:52.631Z,8.50
2018-01-29T02:25:20.074Z,8.50
2018-01-29T02:27:47.500Z,8.50
2018-01-29T02:30:14.971Z,8.50
2018-01-29T02:32:42.421Z,8.40
2018-01-29T02:35:09.884Z,8.30
2018-01-29T02:37:37.335Z,8.40
2018-01-29T02:40:04.767Z,8.30
2018-01-29T02:42:32.246Z,8.20
2018-01-29T02:44:59.660Z,8.20
2018-01-29T02:47:27.083Z,8.20
2018-01-29T02:49:55.296Z,8.30
2018-01-29T02:52:22.727Z,8.20
2018-01-29T02:54:50.176Z,8.20
2018-01-29T02:57:17.622Z,8.20
2018-01-29T02:59:45.050Z,8.20
2018-01-29T03:02:12.487Z,8.20
2018-01-29T03:04:39.907Z,8.30
2018-01-29T03:07:07.331Z,8.20
2018-01-29T03:09:34.775Z,8.30
2018-01-29T03:12:02.216Z,8.30
2018-01-29T03:14:29.652Z,8.30
2018-01-29T03:16:57.099Z,8.40
2018-01-29T03:19:24.522Z,8.40
2018-01-29T03:21:52.744Z,8.50
2018-01-29T03:24:20.184Z,8.50
2018-01-29T03:26:47.631Z,8.50
2018-01-29T03:29:15.044Z,8.60
2018-01-29T03:31:42.486Z,8.60
2018-01-29T03:34:09.908Z,8.60
2018-01-29T03:36:37.539Z,8.70
2018-01-29T03:39:04.983Z,8.70
2018-01-29T03:41:32.480Z,8.80
2018-01-29T03:44:00.655Z,8.80
2018-01-29T03:46:28.090Z,8.70
2018-01-29T03:48:55.523Z,8.80
2018-01-29T03:51:22.947Z,8.80
2018-01-29T03:53:50.405Z,8.80
2018-01-29T03:56:17.819Z,8.80
2018-01-29T03:58:45.278Z,8.90
2018-01-29T04:01:12.704Z,8.80
2018-01-29T04:03:40.140Z,8.80
2018-01-29T04:06:07.570Z,8.80
2018-01-29T04:08:35.012Z,8.90
2018-01-29T04:11:02.441Z,8.90
2018-01-29T04:13:29.882Z,8.80
2018-01-29T04:15:57.316Z,8.70
2018-01-29T04:18:24.772Z,8.60
2018-01-29T04:20:52.383Z,8.60
2018-01-29T04:23:19.819Z,8.50
2018-01-29T04:25:47.252Z,8.50
2018-01-29T04:28:14.711Z,8.50
2018-01-29T04:30:42.142Z,8.50
2018-01-29T04:33:09.576Z,8.50
2018-01-29T04:35:37.766Z,8.50
2018-01-29T04:38:05.206Z,8.40
2018-01-29T04:40:32.644Z,8.40
2018-01-29T04:43:00.076Z,8.40
2018-01-29T04:45:27.518Z,8.30
2018-01-29T04:47:54.947Z,8.30
2018-01-29T04:50:22.375Z,8.20
2018-01-29T04:52:49.808Z,8.10
2018-01-29T04:55:17.247Z,8.00
2018-01-29T04:57:44.708Z,8.00
2018-01-29T05:00:12.122Z,8.00
2018-01-29T05:02:39.545Z,8.00
2018-01-29T05:05:06.992Z,8.00
2018-01-29T05:07:34.442Z,8.00
2018-01-29T05:10:01.908Z,8.00
2018-01-29T05:12:29.356Z,7.90
2018-01-29T05:14:56.783Z,7.90
2018-01-29T05:17:24.202Z,7.90
2018-01-29T05:19:51.647Z,7.80
2018-01-29T05:22:19.088Z,7.70
2018-01-29T05:24:46.519Z,7.70
2018-01-29T05:27:13.979Z,7.70
2018-01-29T05:29:41.399Z,7.70
2018-01-29T05:32:09.591Z,7.50
2018-01-29T05:34:37.039Z,7.50
2018-01-29T05:37:10.135Z,7.50
2018-01-29T05:39:37.575Z,7.50
2018-01-29T05:42:05.019Z,7.40
2018-01-29T05:44:32.449Z,7.40
2018-01-29T05:46:59.886Z,7.40
2018-01-29T05:49:27.355Z,7.30
2018-01-29T05:51:54.783Z,7.30
2018-01-29T05:54:22.223Z,7.30
2018-01-29T05:56:49.657Z,7.20
2018-01-29T05:59:17.087Z,7.20
2018-01-29T06:01:44.533Z,7.20
2018-01-29T06:04:11.984Z,7.10
2018-01-29T06:06:39.443Z,7.10
2018-01-29T06:09:06.893Z,7.10
2018-01-29T06:11:34.295Z,7.10
2018-01-29T06:14:01.733Z,7.10
2018-01-29T06:16:29.192Z,7.10
2018-01-29T06:18:56.623Z,7.10
2018-01-29T06:21:24.056Z,7.10
2018-01-29T06:23:51.488Z,7.10
2018-01-29T06:26:19.710Z,7.10
2018-01-29T06:28:47.145Z,7.00
2018-01-29T06:31:14.576Z,7.00
2018-01-29T06:33:42.808Z,7.10
2018-01-29T06:36:10.227Z,7.00
2018-01-29T06:38:37.659Z,7.10
2018-01-29T06:41:05.867Z,7.10
2018-01-29T06:43:33.289Z,7.00
2018-01-29T06:46:00.734Z,7.00
2018-01-29T06:48:28.176Z,7.10
2018-01-29T06:50:55.646Z,7.10
2018-01-29T06:53:23.066Z,7.10
2018-01-29T06:55:50.485Z,7.10
2018-01-29T06:58:18.688Z,7.10
2018-01-29T07:00:46.116Z,7.00
2018-01-29T07:03:14.377Z,7.00
2018-01-29T07:05:41.771Z,7.00
2018-01-29T07:08:09.196Z,7.00
2018-01-29T07:10:37.390Z,7.00
2018-01-29T07:13:04.821Z,6.90
2018-01-29T07:15:32.343Z,7.00
2018-01-29T07:17:59.762Z,7.00
2018-01-29T07:20:27.194Z,7.00
2018-01-29T07:22:54.719Z,7.10
2018-01-29T07:25:22.139Z,7.10
2018-01-29T07:27:49.581Z,7.10
2018-01-29T07:30:17.016Z,7.10
2018-01-29T07:32:44.459Z,7.00
2018-01-29T07:35:11.899Z,7.00
2018-01-29T07:37:39.356Z,7.00
2018-01-29T07:40:06.891Z,7.00
2018-01-29T07:42:34.320Z,6.90
2018-01-29T07:45:01.754Z,7.00
2018-01-29T07:47:29.204Z,7.00
2018-01-29T07:49:56.654Z,7.00
2018-01-29T07:52:24.115Z,7.10
2018-01-29T07:54:51.562Z,7.00
2018-01-29T07:57:19.072Z,7.00
2018-01-29T07:59:46.716Z,7.10
2018-01-29T08:02:14.329Z,7.10
2018-01-29T08:04:41.785Z,7.10
2018-01-29T08:07:09.241Z,7.10
2018-01-29T08:09:36.728Z,7.10
2018-01-29T08:12:04.188Z,7.10
2018-01-29T08:14:32.533Z,7.00
2018-01-29T08:16:59.994Z,7.00
2018-01-29T08:19:27.446Z,7.10
2018-01-29T08:21:54.908Z,7.10
2018-01-29T08:24:22.372Z,7.10
2018-01-29T08:26:49.821Z,7.20
2018-01-29T08:29:17.283Z,7.30
2018-01-29T08:31:44.751Z,7.30
2018-01-29T08:34:12.208Z,7.30
2018-01-29T08:36:39.696Z,7.40
2018-01-29T08:39:07.140Z,7.50
2018-01-29T08:41:34.588Z,7.60
2018-01-29T08:44:02.041Z,7.60
2018-01-29T08:46:29.521Z,7.70
2018-01-29T08:48:56.998Z,7.70
2018-01-29T08:51:25.214Z,7.70
2018-01-29T08:53:52.678Z,7.60
2018-01-29T08:56:20.113Z,7.60
2018-01-29T08:58:47.602Z,7.60
2018-01-29T09:01:15.041Z,7.50
2018-01-29T09:03:42.496Z,7.50
2018-01-29T09:06:09.972Z,7.50
2018-01-29T09:08:38.427Z,7.60
2018-01-29T09:11:05.872Z,7.60
2018-01-29T09:13:33.336Z,7.70
2018-01-29T09:16:00.781Z,7.70
2018-01-29T09:18:28.240Z,7.80
2018-01-29T09:20:55.680Z,7.90
2018-01-29T09:23:23.187Z,8.00
2018-01-29T09:25:50.601Z,8.10
2018-01-29T09:28:18.059Z,8.10
2018-01-29T09:30:45.520Z,8.10
2018-01-29T09:33:12.972Z,8.20
2018-01-29T09:35:40.428Z,8.30
2018-01-29T09:38:07.881Z,8.40
2018-01-29T09:40:35.345Z,8.40
2018-01-29T09:43:02.796Z,8.50
2018-01-29T09:45:30.255Z,8.60
2018-01-29T09:47:57.692Z,8.70
2018-01-29T09:50:25.132Z,8.80
2018-01-29T09:52:52.658Z,8.90
2018-01-29T09:55:20.100Z,8.90
2018-01-29T09:57:47.560Z,9.10
2018-01-29T10:00:14.986Z,9.10
2018-01-29T10:02:42.433Z,9.20
2018-01-29T10:05:09.889Z,9.30
2018-01-29T10:07:37.323Z,9.40
2018-01-29T10:10:04.775Z,9.50
2018-01-29T10:12:32.221Z,9.70
2018-01-29T10:14:59.734Z,9.90
2018-01-29T10:17:27.192Z,10.00
2018-01-29T10:19:54.658Z,10.20
2018-01-29T10:22:22.663Z,10.40
2018-01-29T10:24:50.123Z,10.60
2018-01-29T10:27:17.568Z,10.90
2018-01-29T10:29:45.022Z,11.40
2018-01-29T10:32:12.452Z,11.90
2018-01-29T10:34:39.913Z,12.40
2018-01-29T10:37:07.515Z,13.20
2018-01-29T10:39:34.959Z,14.10
2018-01-29T10:42:02.392Z,15.50
2018-01-29T10:44:29.855Z,17.00
2018-01-29T10:46:57.299Z,18.50
2018-01-29T10:49:24.737Z,19.40
2018-01-29T10:51:52.167Z,20.50
2018-01-29T10:54:19.601Z,21.40
2018-01-29T10:56:47.037Z,22.00
2018-01-29T10:59:14.574Z,22.60
2018-01-29T11:01:47.611Z,22.60
2018-01-29T11:04:15.060Z,22.80
2018-01-29T11:06:42.543Z,23.00
2018-01-29T11:09:09.974Z,23.20
2018-01-29T11:11:37.430Z,23.50
2018-01-29T11:14:04.891Z,23.70
2018-01-29T11:16:32.323Z,23.70
2018-01-29T11:18:59.774Z,24.50
2018-01-29T11:21:27.227Z,25.10
2018-01-29T11:23:54.679Z,25.80
2018-01-29T11:26:22.136Z,25.60
2018-01-29T11:28:49.600Z,25.80
2018-01-29T11:31:17.043Z,25.80
2018-01-29T11:33:44.495Z,26.10
2018-01-29T11:36:11.943Z,26.30
2018-01-29T11:38:40.143Z,26.70
2018-01-29T11:41:07.819Z,26.60
2018-01-29T11:43:35.244Z,26.80
2018-01-29T11:46:02.692Z,26.90
2018-01-29T11:48:30.149Z,26.80
2018-01-29T11:50:57.591Z,26.90
2018-01-29T11:53:25.051Z,27.00
2018-01-29T11:55:52.623Z,27.30
2018-01-29T11:58:20.103Z,27.40
2018-01-29T12:00:47.512Z,27.40
2018-01-29T12:03:14.955Z,28.10
2018-01-29T12:05:42.401Z,28.30
2018-01-29T12:08:10.065Z,28.50
2018-01-29T12:10:37.500Z,28.80
2018-01-29T12:13:04.977Z,29.10
2018-01-29T12:15:32.395Z,29.50
2018-01-29T12:18:00.643Z,30.00
2018-01-29T12:20:28.095Z,29.90
2018-01-29T12:22:55.556Z,30.30
2018-01-29T12:25:23.012Z,30.40
2018-01-29T12:27:50.503Z,30.30
2018-01-29T12:30:17.951Z,30.50
2018-01-29T12:32:46.146Z,31.20
2018-01-29T12:35:13.596Z,31.20
2018-01-29T12:37:41.783Z,32.20
2018-01-29T12:40:09.205Z,32.20
2018-01-29T12:42:36.644Z,32.90
2018-01-29T12:45:04.179Z,33.20
2018-01-29T12:47:31.627Z,33.20
2018-01-29T12:49:59.052Z,33.60
2018-01-29T12:52:26.543Z,33.70
2018-01-29T12:54:53.967Z,33.70
2018-01-29T12:57:21.399Z,34.00
2018-01-29T12:59:48.823Z,34.10
2018-01-29T13:02:16.375Z,33.90
2018-01-29T13:04:43.835Z,33.90
2018-01-29T13:07:11.264Z,33.70
2018-01-29T13:09:38.768Z,33.40
2018-01-29T13:12:06.409Z,33.20
2018-01-29T13:14:33.843Z,33.20
2018-01-29T13:17:02.015Z,33.50
2018-01-29T13:19:29.443Z,32.60
2018-01-29T13:21:56.963Z,33.20
2018-01-29T13:24:24.399Z,33.20
2018-01-29T13:26:51.844Z,33.50
2018-01-29T13:29:19.289Z,33.00
2018-01-29T13:31:47.684Z,32.20
2018-01-29T13:34:15.135Z,32.10
2018-01-29T13:36:43.351Z,31.10
2018-01-29T13:39:10.803Z,31.10
2018-01-29T13:41:38.357Z,31.10
2018-01-29T13:44:05.774Z,31.50
2018-01-29T13:46:33.967Z,31.50
2018-01-29T13:49:01.418Z,31.40
2018-01-29T13:51:29.613Z,30.70
2018-01-29T13:53:57.246Z,30.70
2018-01-29T13:56:24.711Z,30.10
2018-01-29T13:58:52.152Z,28.60
2018-01-29T14:01:19.571Z,26.60
2018-01-29T14:03:47.035Z,24.70
2018-01-29T14:06:14.465Z,23.00
2018-01-29T14:08:41.923Z,21.80
2018-01-29T14:11:09.347Z,20.80
2018-01-29T14:13:37.555Z,19.40
2018-01-29T14:16:05.011Z,19.30
2018-01-29T14:18:32.440Z,18.80
2018-01-29T14:20:59.874Z,18.40
2018-01-29T14:23:27.336Z,18.00
2018-01-29T14:25:54.772Z,17.50
2018-01-29T14:28:22.222Z,17.10
2018-01-29T14:30:49.703Z,16.70
2018-01-29T14:33:17.160Z,16.50
2018-01-29T14:35:44.662Z,16.30
2018-01-29T14:38:12.091Z,16.20
2018-01-29T14:40:39.554Z,16.00
2018-01-29T14:43:07.041Z,15.80
2018-01-29T14:45:34.463Z,15.60
2018-01-29T14:48:01.904Z,15.40
2018-01-29T14:50:29.379Z,15.30
2018-01-29T14:52:56.823Z,15.10
2018-01-29T14:55:24.270Z,14.90
2018-01-29T14:57:51.744Z,14.70
2018-01-29T15:00:19.198Z,14.60
2018-01-29T15:02:46.663Z,14.50
2018-01-29T15:05:14.109Z,14.40
2018-01-29T15:07:41.557Z,14.30
2018-01-29T15:10:09.275Z,14.20
2018-01-29T15:12:36.744Z,14.20
2018-01-29T15:15:04.210Z,14.10
2018-01-29T15:17:31.647Z,14.10
2018-01-29T15:19:59.096Z,14.00
2018-01-29T15:22:26.549Z,13.90
2018-01-29T15:24:53.995Z,13.80
2018-01-29T15:27:21.457Z,13.80
2018-01-29T15:29:48.926Z,13.60
2018-01-29T15:32:16.393Z,13.60
2018-01-29T15:34:43.818Z,13.50
2018-01-29T15:37:11.304Z,13.50
2018-01-29T15:39:38.774Z,13.50
2018-01-29T15:42:06.272Z,13.40
2018-01-29T15:44:33.731Z,13.40
2018-01-29T15:47:01.204Z,13.30
2018-01-29T15:49:28.640Z,13.20
2018-01-29T15:51:56.101Z,13.20
2018-01-29T15:54:23.552Z,13.20
2018-01-29T15:56:50.998Z,13.10
2018-01-29T15:59:18.472Z,13.00
2018-01-29T16:01:46.684Z,12.90
2018-01-29T16:04:14.336Z,12.80
2018-01-29T16:06:41.790Z,12.80
2018-01-29T16:09:09.234Z,12.70
2018-01-29T16:11:36.687Z,12.60
2018-01-29T16:14:04.136Z,12.50
2018-01-29T16:16:31.570Z,12.50
2018-01-29T16:18:59.089Z,12.40
2018-01-29T16:21:26.545Z,12.30
2018-01-29T16:23:54.001Z,12.20
2018-01-29T16:26:21.461Z,12.10
2018-01-29T16:28:48.914Z,12.10
2018-01-29T16:31:16.372Z,12.00
2018-01-29T16:33:43.856Z,11.90
2018-01-29T16:36:11.312Z,11.80
2018-01-29T16:38:40.265Z,11.60
2018-01-29T16:41:07.736Z,11.70
2018-01-29T16:43:35.179Z,11.70
2018-01-29T16:46:02.649Z,11.60
2018-01-29T16:48:30.110Z,11.50
2018-01-29T16:50:57.766Z,11.40
2018-01-29T16:53:25.194Z,11.40
2018-01-29T16:55:52.648Z,11.40
2018-01-29T16:58:20.873Z,11.40
2018-01-29T17:00:48.330Z,11.40
2018-01-29T17:03:15.800Z,11.40
2018-01-29T17:05:43.254Z,11.40
2018-01-29T17:08:10.703Z,11.30
2018-01-29T17:10:38.143Z,11.30
2018-01-29T17:13:05.571Z,11.30
2018-01-29T17:15:33.031Z,11.20
2018-01-29T17:18:00.463Z,11.20
2018-01-29T17:20:28.706Z,11.10
2018-01-29T17:22:56.150Z,11.00
2018-01-29T17:25:23.601Z,11.00
2018-01-29T17:27:51.080Z,10.90
2018-01-29T17:30:18.520Z,10.80
2018-01-29T17:32:46.164Z,10.80
2018-01-29T17:35:13.623Z,10.80
2018-01-29T17:37:41.065Z,10.70
2018-01-29T17:40:08.526Z,10.70
2018-01-29T17:42:35.980Z,10.70
2018-01-29T17:45:03.401Z,10.60
2018-01-29T17:47:30.841Z,10.60
2018-01-29T17:49:58.289Z,10.50
2018-01-29T17:52:25.735Z,10.50
2018-01-29T17:54:53.187Z,10.40
2018-01-29T17:57:20.630Z,10.40
2018-01-29T17:59:48.089Z,10.30
2018-01-29T18:02:15.530Z,10.30
2018-01-29T18:04:42.981Z,10.20
2018-01-29T18:07:11.191Z,10.20
2018-01-29T18:09:38.645Z,10.10
2018-01-29T18:12:06.092Z,10.10
2018-01-29T18:14:33.575Z,10.20
2018-01-29T18:17:01.023Z,10.10
2018-01-29T18:19:28.463Z,10.10
2018-01-29T18:21:55.929Z,10.10
2018-01-29T18:24:23.371Z,10.10
2018-01-29T18:26:50.830Z,10.00
2018-01-29T18:29:18.300Z,10.00
2018-01-29T18:31:45.745Z,9.90
2018-01-29T18:34:13.175Z,9.90
2018-01-29T18:36:40.620Z,9.90
2018-01-29T18:39:08.074Z,9.90
2018-01-29T18:41:35.511Z,9.80
2018-01-29T18:44:02.979Z,9.80
2018-01-29T18:46:30.534Z,9.90
2018-01-29T18:48:57.990Z,9.90
2018-01-29T18:51:25.423Z,10.00
2018-01-29T18:53:52.896Z,10.00
2018-01-29T18:56:20.330Z,10.10
2018-01-29T18:58:47.791Z,10.20
2018-01-29T19:01:15.235Z,10.20
2018-01-29T19:03:42.710Z,10.10
2018-01-29T19:06:10.159Z,10.20
2018-01-29T19:08:37.603Z,10.20
2018-01-29T19:11:05.071Z,10.10
2018-01-29T19:13:32.516Z,10.10
2018-01-29T19:15:59.967Z,10.10
2018-01-29T19:18:27.403Z,10.00
2018-01-29T19:20:54.845Z,9.90
2018-01-29T19:23:22.299Z,9.90
2018-01-29T19:25:49.745Z,9.90
2018-01-29T19:28:17.185Z,9.90
2018-01-29T19:30:44.635Z,9.90
2018-01-29T19:33:12.082Z,9.80
2018-01-29T19:35:39.520Z,9.80
2018-01-29T19:38:06.960Z,9.80
2018-01-29T19:40:35.170Z,9.80
2018-01-29T19:43:02.629Z,9.80
2018-01-29T19:45:30.065Z,9.90
2018-01-29T19:47:57.526Z,9.90
2018-01-29T19:50:24.967Z,9.80
2018-01-29T19:52:52.432Z,9.80
2018-01-29T19:55:19.859Z,9.70
2018-01-29T19:57:47.311Z,9.60
2018-01-29T20:00:14.736Z,9.60
2018-01-29T20:02:42.184Z,9.60
2018-01-29T20:05:09.706Z,9.60
2018-01-29T20:07:37.143Z,9.50
2018-01-29T20:10:04.617Z,9.50
2018-01-29T20:12:32.819Z,9.60
2018-01-29T20:15:00.254Z,9.50
2018-01-29T20:17:27.719Z,9.60
2018-01-29T20:19:55.148Z,9.50
2018-01-29T20:22:23.375Z,9.60
2018-01-29T20:24:50.817Z,9.60
2018-01-29T20:27:18.363Z,9.60
2018-01-29T20:29:45.795Z,9.50
2018-01-29T20:32:13.222Z,9.50
2018-01-29T20:34:40.677Z,9.50
2018-01-29T20:37:08.123Z,9.50
2018-01-29T20:39:35.587Z,9.50
2018-01-29T20:42:03.041Z,9.50
2018-01-29T20:44:30.484Z,9.50
2018-01-29T20:46:57.937Z,9.60
2018-01-29T20:49:25.470Z,9.60
2018-01-29T20:51:52.898Z,9.60
2018-01-29T20:54:20.359Z,9.60
2018-01-29T20:56:47.782Z,9.60
2018-01-29T20:59:15.233Z,9.50
2018-01-29T21:01:42.677Z,9.50
2018-01-29T21:04:10.115Z,9.50
2018-01-29T21:06:38.327Z,9.50
2018-01-29T21:09:05.761Z,9.40
2018-01-29T21:11:33.204Z,9.40
2018-01-29T21:14:00.644Z,9.40
2018-01-29T21:16:28.071Z,9.50
2018-01-29T21:18:55.527Z,9.40
2018-01-29T21:21:22.960Z,9.50
2018-01-29T21:23:50.414Z,9.50
2018-01-29T21:26:17.825Z,9.50
2018-01-29T21:28:46.026Z,9.30
2018-01-29T21:31:13.464Z,9.30
2018-01-29T21:33:41.843Z,9.40
2018-01-29T21:36:09.275Z,9.30
2018-01-29T21:38:36.721Z,9.40
2018-01-29T21:41:04.155Z,9.40
2018-01-29T21:43:31.579Z,9.40
2018-01-29T21:45:59.786Z,9.40
2018-01-29T21:48:27.225Z,9.40
2018-01-29T21:50:54.667Z,9.40
2018-01-29T21:53:22.099Z,9.30
2018-01-29T21:55:49.543Z,9.30
2018-01-29T21:58:16.977Z,9.20
2018-01-29T22:00:44.427Z,9.10
2018-01-29T22:03:11.854Z,9.10
2018-01-29T22:05:39.319Z,9.10
2018-01-29T22:08:06.747Z,9.00
2018-01-29T22:10:34.934Z,8.80
2018-01-29T22:13:02.383Z,8.70
2018-01-29T22:15:30.574Z,8.60
2018-01-29T22:17:58.237Z,8.60
2018-01-29T22:20:25.667Z,8.60
2018-01-29T22:22:53.118Z,8.60
2018-01-29T22:25:20.542Z,8.50
2018-01-29T22:27:47.991Z,8.50
2018-01-29T22:30:15.449Z,8.40
2018-01-29T22:32:42.877Z,8.40
2018-01-29T22:35:10.320Z,8.40
2018-01-29T22:37:38.522Z,8.40
2018-01-29T22:40:06.007Z,8.30
2018-01-29T22:42:33.383Z,8.30
2018-01-29T22:45:00.831Z,8.30
2018-01-29T22:47:28.258Z,8.30
2018-01-29T22:49:55.720Z,8.30
2018-01-29T22:52:23.131Z,8.30
2018-01-29T22:54:51.319Z,8.20
2018-01-29T22:57:18.772Z,8.10
2018-01-29T22:59:46.187Z,8.10
2018-01-29T23:02:13.627Z,8.10
2018-01-29T23:04:41.084Z,8.10
2018-01-29T23:07:08.525Z,8.10
2018-01-29T23:09:35.958Z,7.90
2018-01-29T23:12:03.395Z,8.00
2018-01-29T23:14:30.828Z,8.00
2018-01-29T23:16:58.267Z,8.00
2018-01-29T23:19:26.463Z,8.00
2018-01-29T23:21:53.893Z,7.90
2018-01-29T23:24:21.345Z,7.80
2018-01-29T23:26:48.770Z,7.80
2018-01-29T23:29:16.207Z,7.80
2018-01-29T23:31:44.416Z,7.90
2018-01-29T23:34:11.835Z,7.80
2018-01-29T23:36:39.270Z,7.90
2018-01-29T23:39:06.711Z,8.00
2018-01-29T23:41:34.145Z,8.00
2018-01-29T23:44:01.716Z,8.00
2018-01-29T23:46:29.179Z,8.10
2018-01-29T23:48:57.348Z,8.10
2018-01-29T23:51:24.788Z,8.10
2018-01-29T23:53:52.215Z,8.10
2018-01-29T23:56:20.423Z,8.10
2018-01-29T23:58:47.845Z,8.10
